Time;durP1;ratioP1;P1;durP2;ratioP2;P2;SDS_P1;SDS_P2;PMS_P1;PMS_P2;Temp;Humidity;BMP_temperature;BMP_pressure;BME280_temperature;BME280_humidity;BME280_pressure;Samples;Min_cycle;Max_cycle;Signal;HPM_P1;HPM_P2
2022/09/26 00:00:41;;;;;;;13.33;10.00;;;;;;;-141.97;67.75;47522.91;5034019;28;20159;-85
2022/09/26 00:03:08;;;;;;;15.30;10.07;;;;;;;-141.97;68.33;47526.75;5034122;28;20182;-86
2022/09/26 00:05:33;;;;;;;15.03;10.40;;;;;;;-141.97;67.68;47392.22;5034018;28;20575;-87
2022/09/26 00:07:59;;;;;;;16.57;10.07;;;;;;;-141.97;67.78;47530.59;5050226;28;20177;-84
2022/09/26 00:10:24;;;;;;;14.37;9.90;;;;;;;-141.97;67.19;47515.22;5034764;28;20162;-85
2022/09/26 00:12:50;;;;;;;16.03;10.97;;;;;;;-141.97;67.95;47494.09;5035238;28;20165;-86
2022/09/26 00:15:15;;;;;;;17.90;10.33;;;;;;;-141.97;67.94;47499.84;5056108;28;20151;-83
2022/09/26 00:17:41;;;;;;;15.50;10.27;;;;;;;-141.97;68.25;47503.69;5057579;28;20234;-85
2022/09/26 00:20:07;;;;;;;15.03;9.90;;;;;;;-141.97;67.34;47492.16;5044084;28;20280;-88
2022/09/26 00:22:32;;;;;;;22.47;11.67;;;;;;;-141.97;66.92;47505.63;5033765;28;20169;-86
2022/09/26 00:24:58;;;;;;;17.27;11.67;;;;;;;-141.97;66.65;47524.84;5033126;28;20166;-86
2022/09/26 00:27:23;;;;;;;19.53;12.07;;;;;;;-141.97;66.68;47540.22;5033631;28;20527;-85
2022/09/26 00:29:49;;;;;;;20.73;12.87;;;;;;;-141.97;66.51;47494.09;5033794;28;20237;-86
2022/09/26 00:32:14;;;;;;;20.57;12.50;;;;;;;-141.97;66.42;47507.53;5033317;28;20166;-87
2022/09/26 00:34:39;;;;;;;21.13;12.10;;;;;;;-141.97;66.18;47492.16;5033586;28;20158;-86
2022/09/26 00:37:05;;;;;;;21.10;12.43;;;;;;;-141.97;66.03;47442.19;5032942;28;20205;-87
2022/09/26 00:39:30;;;;;;;17.37;11.57;;;;;;;-141.97;65.64;47511.38;5033001;28;20162;-85
2022/09/26 00:41:56;;;;;;;20.30;11.87;;;;;;;-141.97;65.82;47509.47;5032987;28;20164;-85
2022/09/26 00:44:43;;;;;;;18.60;12.47;;;;;;;-141.97;66.22;47553.69;5033282;28;20218;-86
2022/09/26 00:47:38;;;;;;;18.60;11.90;;;;;;;-141.97;66.25;47517.16;5033041;28;20162;-86
2022/09/26 00:50:27;;;;;;;16.97;11.47;;;;;;;-141.97;67.04;47534.44;5032115;28;20190;-85
2022/09/26 00:53:00;;;;;;;18.10;11.93;;;;;;;-141.97;68.37;47517.16;5033252;28;20231;-86
2022/09/26 00:55:31;;;;;;;20.93;12.93;;;;;;;-141.97;68.13;47507.53;5032948;28;20166;-86
2022/09/26 00:58:04;;;;;;;21.37;12.23;;;;;;;-141.97;68.57;47499.84;5032895;28;20229;-85
2022/09/26 01:00:29;;;;;;;19.37;12.27;;;;;;;-141.97;68.48;47526.75;5015400;28;20238;-86
2022/09/26 01:02:56;;;;;;;18.57;11.80;;;;;;;-141.97;68.57;47501.78;5034293;28;20570;-84
2022/09/26 01:05:22;;;;;;;17.73;11.43;;;;;;;-141.97;68.87;47530.59;5034111;28;20166;-85
2022/09/26 01:07:50;;;;;;;18.03;11.57;;;;;;;-141.97;68.96;47505.63;5033255;28;20158;-86
2022/09/26 01:10:17;;;;;;;17.33;11.60;;;;;;;-141.97;69.19;47534.44;5033216;28;20228;-86
2022/09/26 01:12:42;;;;;;;16.20;11.13;;;;;;;-141.97;69.02;47517.16;5033005;28;20154;-85
2022/09/26 01:15:08;;;;;;;15.53;11.27;;;;;;;-141.97;69.27;47574.81;5032731;28;20211;-86
2022/09/26 01:17:37;;;;;;;20.20;12.37;;;;;;;-141.97;68.88;47546.00;5032256;28;20236;-86
2022/09/26 01:20:27;;;;;;;14.87;10.23;;;;;;;-141.97;68.71;47507.53;5032757;28;20173;-86
2022/09/26 01:23:19;;;;;;;15.97;10.87;;;;;;;-141.97;69.47;47490.25;5014767;28;20262;-86
2022/09/26 01:26:03;;;;;;;17.07;11.53;;;;;;;-141.97;69.46;47522.91;5032838;28;20165;-86
2022/09/26 01:28:58;;;;;;;17.87;12.03;;;;;;;-141.97;69.14;47509.47;5032795;28;20158;-84
2022/09/26 01:31:27;;;;;;;16.83;11.50;;;;;;;-141.97;69.42;47542.16;5015433;28;20227;-86
2022/09/26 01:34:12;;;;;;;19.53;11.60;;;;;;;-141.97;67.90;47551.75;5033147;28;20169;-85
2022/09/26 01:36:49;;;;;;;85.40;40.83;;;;;;;-141.97;67.50;47511.38;5032158;28;20649;-86
2022/09/26 01:39:17;;;;;;;28.47;16.30;;;;;;;-141.97;67.59;47540.22;5032052;28;20180;-86
2022/09/26 01:41:42;;;;;;;17.43;12.10;;;;;;;-141.97;67.42;47547.91;5032333;28;20503;-85
2022/09/26 01:44:08;;;;;;;18.13;11.43;;;;;;;-141.97;67.32;47540.22;5032518;28;20193;-84
2022/09/26 01:47:12;;;;;;;22.40;13.00;;;;;;;-141.97;68.06;47534.44;5032637;28;20162;-87
2022/09/26 01:49:51;;;;;;;20.47;12.80;;;;;;;-141.97;69.00;47542.16;5032330;28;20229;-85
2022/09/26 01:52:29;;;;;;;19.83;11.87;;;;;;;-141.97;68.84;47522.91;5014399;28;20269;-86
2022/09/26 01:55:15;;;;;;;14.80;11.10;;;;;;;-141.97;68.50;47572.91;5033052;28;20701;-85
2022/09/26 01:57:54;;;;;;;21.37;11.37;;;;;;;-141.97;69.20;47517.16;5032289;28;20186;-86
2022/09/26 02:00:20;;;;;;;15.90;10.90;;;;;;;-141.97;69.12;47547.91;5032388;28;20162;-85
2022/09/26 02:02:48;;;;;;;14.37;10.70;;;;;;;-141.97;69.52;47488.31;5034292;28;20649;-85
2022/09/26 02:05:23;;;;;;;16.33;10.90;;;;;;;-141.97;68.96;47546.00;5036876;28;20224;-86
2022/09/26 02:07:56;;;;;;;16.70;10.57;;;;;;;-141.97;68.88;47522.91;5039239;28;20161;-86
2022/09/26 02:10:32;;;;;;;15.40;10.73;;;;;;;-141.97;70.04;47490.25;5037854;28;20193;-85
2022/09/26 02:13:13;;;;;;;17.23;10.90;;;;;;;-141.97;69.75;47542.16;5036225;28;20160;-86
2022/09/26 02:15:39;;;;;;;17.30;10.80;;;;;;;-141.97;70.00;47561.38;5036204;28;20162;-86
2022/09/26 02:18:13;;;;;;;15.67;11.03;;;;;;;-141.97;69.79;47497.94;5035642;28;20614;-84
2022/09/26 02:20:43;;;;;;;17.87;11.60;;;;;;;-141.97;70.18;47555.59;5035633;28;20174;-85
2022/09/26 02:23:08;;;;;;;20.73;12.07;;;;;;;-141.97;70.76;47534.44;5035625;28;20280;-85
2022/09/26 02:25:34;;;;;;;18.80;11.57;;;;;;;-141.97;70.88;47530.59;5036041;28;20221;-84
2022/09/26 02:28:00;;;;;;;17.63;11.80;;;;;;;-141.97;70.67;47494.09;5019527;28;20170;-85
2022/09/26 02:30:25;;;;;;;18.13;12.13;;;;;;;-141.97;69.75;47549.84;5035466;28;20162;-85
2022/09/26 02:32:51;;;;;;;17.80;11.33;;;;;;;-141.97;70.03;47532.53;5035362;28;20158;-85
2022/09/26 02:38:04;;;;;;;15.67;10.80;;;;;;;-141.97;72.00;47522.91;5036225;28;20676;-85
2022/09/26 02:40:55;;;;;;;17.57;11.50;;;;;;;-141.97;72.47;47574.81;5060368;28;20150;-84
2022/09/26 02:43:39;;;;;;;17.87;11.40;;;;;;;-141.97;73.65;47536.38;5059115;28;20194;-84
2022/09/26 02:46:04;;;;;;;19.67;12.00;;;;;;;-141.97;72.75;47542.16;5037902;28;20597;-85
2022/09/26 02:48:53;;;;;;;16.27;11.20;;;;;;;-141.97;71.64;47538.28;5036234;28;20162;-85
2022/09/26 02:51:53;;;;;;;16.33;10.97;;;;;;;-141.97;71.60;47505.63;5035427;28;20166;-85
2022/09/26 02:54:29;;;;;;;16.37;10.90;;;;;;;-141.97;71.55;47532.53;5035241;28;20150;-85
2022/09/26 02:57:10;;;;;;;18.20;11.10;;;;;;;-141.97;71.28;47530.59;5017742;28;20174;-86
2022/09/26 02:59:48;;;;;;;18.70;11.13;;;;;;;-141.97;71.08;47524.84;5035296;28;20166;-86
2022/09/26 03:02:18;;;;;;;18.40;11.33;;;;;;;-141.97;71.04;47517.16;5035991;28;20162;-86
2022/09/26 03:04:49;;;;;;;19.60;11.63;;;;;;;-141.97;71.12;47519.06;5036194;28;20221;-86
2022/09/26 03:07:30;;;;;;;17.57;11.50;;;;;;;-141.97;70.53;47515.22;5035121;28;20189;-85
2022/09/26 03:09:59;;;;;;;17.97;11.20;;;;;;;-141.97;70.89;47540.22;5034849;28;20173;-86
2022/09/26 03:12:28;;;;;;;16.77;11.03;;;;;;;-141.97;71.62;47580.59;5035089;28;20248;-86
2022/09/26 03:14:55;;;;;;;16.87;11.47;;;;;;;-141.97;71.41;47619.03;5034229;28;20253;-86
2022/09/26 03:17:21;;;;;;;17.73;11.10;;;;;;;-141.97;71.29;47522.91;5034635;28;20222;-85
2022/09/26 03:19:58;;;;;;;16.53;11.63;;;;;;;-141.97;71.80;47615.19;5034847;28;20568;-86
2022/09/26 03:22:24;;;;;;;17.80;10.90;;;;;;;-141.97;71.74;47551.75;5041678;28;20618;-85
2022/09/26 03:24:50;;;;;;;19.30;11.33;;;;;;;-141.97;71.42;47532.53;5040941;28;20193;-84
2022/09/26 03:27:17;;;;;;;18.20;11.33;;;;;;;-141.97;71.83;47657.47;5036361;28;20154;-87
2022/09/26 03:29:43;;;;;;;17.63;11.57;;;;;;;-141.97;71.44;47496.00;5035828;28;20224;-85
2022/09/26 03:32:08;;;;;;;16.57;11.40;;;;;;;-141.97;71.57;47534.44;5035473;28;20158;-85
2022/09/26 03:34:38;;;;;;;19.23;11.77;;;;;;;-141.97;71.28;47519.06;5034304;28;20249;-85
2022/09/26 03:37:04;;;;;;;46.63;26.83;;;;;;;-141.97;71.05;47526.75;5034312;28;20158;-85
2022/09/26 03:39:30;;;;;;;23.63;13.93;;;;;;;-141.97;71.13;47542.16;5034196;28;20166;-86
2022/09/26 03:41:56;;;;;;;28.00;13.43;;;;;;;-141.97;70.81;47515.22;5034680;28;20158;-85
2022/09/26 03:44:22;;;;;;;25.47;14.57;;;;;;;-141.97;70.82;47513.31;5034286;28;20190;-85
2022/09/26 03:46:47;;;;;;;22.23;13.63;;;;;;;-141.97;70.98;47526.75;5038989;28;20165;-85
2022/09/26 03:49:13;;;;;;;22.90;13.23;;;;;;;-141.97;71.01;47563.28;5019640;28;20169;-84
2022/09/26 03:51:38;;;;;;;20.23;13.33;;;;;;;-141.97;71.01;47522.91;5035120;28;20186;-87
2022/09/26 03:54:03;;;;;;;20.40;13.83;;;;;;;-141.97;70.41;47542.16;5034486;28;20166;-85
2022/09/26 03:56:29;;;;;;;23.50;14.50;;;;;;;-141.97;70.67;47469.09;5033309;28;20158;-85
2022/09/26 03:58:55;;;;;;;25.23;14.90;;;;;;;-141.97;71.05;47480.63;5049312;28;20258;-85
2022/09/26 04:01:21;;;;;;;33.40;15.43;;;;;;;-141.97;70.30;47551.75;5034166;28;20651;-85
2022/09/26 04:03:48;;;;;;;31.70;14.63;;;;;;;-141.97;69.52;47549.84;5034176;28;20248;-85
2022/09/26 04:06:18;;;;;;;32.67;16.70;;;;;;;-141.97;69.46;47540.22;5033840;28;20162;-85
2022/09/26 04:08:46;;;;;;;31.00;16.40;;;;;;;-141.97;69.57;47549.84;5035358;28;20155;-84
2022/09/26 04:11:14;;;;;;;33.50;14.63;;;;;;;-141.97;69.80;47532.53;5034535;28;20219;-86
2022/09/26 04:13:39;;;;;;;25.97;14.87;;;;;;;-141.97;69.55;47547.91;5034494;28;20178;-85
2022/09/26 04:16:08;;;;;;;34.77;14.53;;;;;;;-141.97;69.34;47501.78;5034323;28;20317;-85
2022/09/26 04:18:34;;;;;;;29.73;14.50;;;;;;;-141.97;69.66;47538.28;5017036;28;20227;-86
2022/09/26 04:21:08;;;;;;;32.07;16.13;;;;;;;-141.97;69.84;47561.38;5035013;28;20182;-85
2022/09/26 04:23:36;;;;;;;23.90;14.10;;;;;;;-141.97;69.45;47524.84;5034804;28;20189;-85
2022/09/26 04:26:10;;;;;;;27.87;14.13;;;;;;;-141.97;69.05;47549.84;5034436;28;20550;-86
2022/09/26 04:28:35;;;;;;;28.03;14.40;;;;;;;-141.97;69.11;47542.16;5034017;28;20166;-86
2022/09/26 04:31:03;;;;;;;43.30;16.30;;;;;;;-141.97;68.24;47584.44;5034512;28;20243;-87
2022/09/26 04:33:31;;;;;;;34.70;17.60;;;;;;;-141.97;67.75;47526.75;5034808;28;20154;-86
2022/09/26 04:35:59;;;;;;;24.07;13.83;;;;;;;-141.97;67.61;47570.97;5037231;28;20249;-85
2022/09/26 04:38:30;;;;;;;31.93;15.67;;;;;;;-141.97;67.29;47561.38;5039347;28;20166;-86
2022/09/26 04:40:56;;;;;;;22.27;13.90;;;;;;;-141.97;67.39;47488.31;5036347;28;20696;-85
2022/09/26 04:43:21;;;;;;;25.90;15.43;;;;;;;-141.97;67.41;47622.88;5036403;28;20197;-86
2022/09/26 04:45:47;;;;;;;33.30;17.53;;;;;;;-141.97;67.43;47482.56;5037037;28;20152;-84
2022/09/26 04:48:12;;;;;;;26.60;14.90;;;;;;;-141.97;67.42;47511.38;5035064;28;20241;-84
2022/09/26 04:50:38;;;;;;;34.40;20.00;;;;;;;-141.97;67.54;47517.16;5016146;28;20189;-86
2022/09/26 04:53:05;;;;;;;31.17;18.67;;;;;;;-141.97;67.87;47542.16;5034236;28;20154;-86
2022/09/26 04:55:32;;;;;;;25.83;14.73;;;;;;;-141.97;68.40;47530.59;5035493;28;20164;-88
2022/09/26 04:57:57;;;;;;;21.13;14.30;;;;;;;-141.97;67.61;47526.75;5043162;28;20565;-85
2022/09/26 05:00:23;;;;;;;19.40;11.83;;;;;;;-141.97;67.55;47553.69;5035012;28;20183;-85
2022/09/26 05:02:48;;;;;;;17.97;10.63;;;;;;;-141.97;67.91;47519.06;5035381;28;20203;-85
2022/09/26 05:05:14;;;;;;;16.53;11.17;;;;;;;-141.97;68.56;47511.38;5039820;28;20189;-84
2022/09/26 05:07:43;;;;;;;16.70;9.97;;;;;;;-141.97;68.39;47476.78;5073942;28;20154;-85
2022/09/26 05:10:09;;;;;;;19.97;10.40;;;;;;;-141.97;68.36;47551.75;5043022;28;20177;-86
2022/09/26 05:12:40;;;;;;;21.50;11.60;;;;;;;-141.97;68.11;47519.06;5034281;28;20721;-84
2022/09/26 05:15:08;;;;;;;26.53;12.27;;;;;;;-141.97;67.29;47544.06;5034193;28;20240;-84
2022/09/26 05:17:37;;;;;;;21.37;13.00;;;;;;;-141.97;68.21;47630.56;5034217;28;20646;-86
2022/09/26 05:20:07;;;;;;;21.33;12.50;;;;;;;-141.97;67.32;47476.78;5033898;28;20158;-85
2022/09/26 05:22:33;;;;;;;24.77;13.87;;;;;;;-141.97;67.52;47530.59;5034018;28;20614;-84
2022/09/26 05:27:44;;;;;;;19.10;12.37;;;;;;;-141.97;68.49;47534.44;5034047;28;20610;-85
2022/09/26 05:30:11;;;;;;;27.27;13.73;;;;;;;-141.97;68.35;47542.16;5033996;28;20166;-85
2022/09/26 05:32:38;;;;;;;26.23;11.73;;;;;;;-141.97;69.00;47542.16;5034007;28;20177;-86
2022/09/26 05:35:04;;;;;;;21.80;11.30;;;;;;;-141.97;69.67;47542.16;5036791;28;20190;-85
2022/09/26 05:37:30;;;;;;;20.87;10.47;;;;;;;-141.97;69.81;47532.53;5036685;28;20615;-86
2022/09/26 05:42:39;;;;;;;18.43;11.10;;;;;;;-141.97;68.64;47557.53;5032743;28;20244;-85
2022/09/26 05:45:05;;;;;;;16.70;10.60;;;;;;;-141.97;69.46;47649.78;5032786;28;20185;-85
2022/09/26 05:47:35;;;;;;;16.70;10.17;;;;;;;-141.97;69.61;47557.53;5033657;28;20261;-86
2022/09/26 05:50:08;;;;;;;17.97;10.27;;;;;;;-141.97;69.07;47526.75;5033935;28;20672;-87
2022/09/26 05:52:35;;;;;;;22.40;14.13;;;;;;;-141.97;67.75;47657.47;5033115;28;20150;-85
2022/09/26 05:55:00;;;;;;;19.33;11.37;;;;;;;-141.97;66.95;47507.53;5047766;28;20203;-85
2022/09/26 05:57:26;;;;;;;18.23;10.17;;;;;;;-141.97;66.19;47515.22;5033147;28;20237;-86
2022/09/26 05:59:51;;;;;;;22.30;10.27;;;;;;;-141.97;65.46;47522.91;5033592;28;20580;-85
2022/09/26 06:02:16;;;;;;;19.90;10.33;;;;;;;-141.97;64.20;47586.34;5033953;28;20169;-85
2022/09/26 06:04:42;;;;;;;16.83;10.20;;;;;;;-141.97;63.32;47542.16;5032965;28;21267;-86
2022/09/26 06:07:07;;;;;;;16.47;10.00;;;;;;;-141.97;62.08;47480.63;5032936;28;20160;-86
2022/09/26 06:09:33;;;;;;;16.17;9.90;;;;;;;-141.97;60.90;47488.31;5032715;28;20937;-86
2022/09/26 06:11:58;;;;;;;17.87;9.30;;;;;;;-141.97;59.72;47530.59;5032664;28;20172;-85
2022/09/26 06:14:25;;;;;;;14.50;9.20;;;;;;;-141.97;58.74;47653.63;5033252;28;20237;-85
2022/09/26 06:16:50;;;;;;;15.33;8.83;;;;;;;-141.97;58.74;47521.00;5032774;28;20224;-86
2022/09/26 06:19:16;;;;;;;14.63;10.20;;;;;;;-141.97;58.78;47494.09;5033070;28;20245;-85
2022/09/26 06:21:42;;;;;;;19.77;10.23;;;;;;;-141.97;58.32;47534.44;5032504;28;20249;-85
2022/09/26 06:24:09;;;;;;;13.13;10.00;;;;;;;-141.97;57.98;47538.28;5032979;28;20677;-85
2022/09/26 06:26:36;;;;;;;20.13;13.47;;;;;;;-141.97;57.54;47453.72;5032747;28;20674;-85
2022/09/26 06:29:02;;;;;;;16.17;11.30;;;;;;;-141.97;57.36;47501.78;5032692;28;20176;-84
2022/09/26 06:31:28;;;;;;;15.60;10.43;;;;;;;-141.97;57.69;47532.53;5033228;28;20178;-84
2022/09/26 06:33:54;;;;;;;14.23;9.50;;;;;;;-141.97;58.00;47532.53;5033202;28;20254;-84
2022/09/26 06:36:21;;;;;;;15.37;9.70;;;;;;;-141.97;58.31;47521.00;5033349;28;20162;-86
2022/09/26 06:38:47;;;;;;;23.00;16.27;;;;;;;-141.97;57.76;47526.75;5032205;28;20170;-86
2022/09/26 06:41:16;;;;;;;14.97;9.57;;;;;;;-141.97;59.08;47522.91;5033178;28;20689;-87
2022/09/26 06:43:44;;;;;;;15.10;9.67;;;;;;;-141.97;58.62;47511.38;5033657;28;20194;-86
2022/09/26 06:46:14;;;;;;;13.87;9.23;;;;;;;-141.97;57.32;47542.16;5032502;28;20162;-85
2022/09/26 06:48:40;;;;;;;17.73;9.83;;;;;;;-141.97;56.71;47601.72;5033109;28;20167;-86
2022/09/26 06:51:06;;;;;;;17.17;9.93;;;;;;;-141.97;55.73;47442.19;5036420;28;20162;-86
2022/09/26 06:53:33;;;;;;;16.30;9.80;;;;;;;-141.97;54.61;47486.41;5036808;28;20591;-86
2022/09/26 06:56:00;;;;;;;15.20;10.03;;;;;;;-141.97;53.85;47688.22;5036515;28;20158;-85
2022/09/26 06:58:26;;;;;;;14.10;9.93;;;;;;;-141.97;53.57;47486.41;5037255;28;20236;-86
2022/09/26 07:00:52;;;;;;;12.40;9.60;;;;;;;-141.97;52.73;47515.22;5036704;28;20572;-86
2022/09/26 07:03:18;;;;;;;19.83;10.70;;;;;;;-141.97;52.00;47499.84;5039614;28;20220;-86
2022/09/26 07:05:44;;;;;;;16.47;9.70;;;;;;;-141.97;50.92;47461.41;5038138;28;20599;-86
2022/09/26 07:08:09;;;;;;;14.33;9.30;;;;;;;-141.97;49.54;47484.47;5019700;28;20253;-85
2022/09/26 07:10:37;;;;;;;13.40;8.40;;;;;;;-141.97;48.78;47494.09;5036200;28;20202;-86
2022/09/26 07:13:05;;;;;;;13.13;8.80;;;;;;;-141.97;48.99;47490.25;5035704;28;20158;-86
2022/09/26 07:15:33;;;;;;;15.50;8.60;;;;;;;-141.97;47.89;47511.38;5035805;28;20158;-85
2022/09/26 07:18:01;;;;;;;12.00;7.00;;;;;;;-141.97;45.46;47511.38;5035816;28;20221;-86
2022/09/26 07:20:32;;;;;;;12.57;7.27;;;;;;;-141.97;45.40;47507.53;5036040;28;20193;-86
2022/09/26 07:23:07;;;;;;;10.67;7.43;;;;;;;-141.97;44.59;47469.09;5035669;28;20264;-86
2022/09/26 07:25:33;;;;;;;13.67;7.13;;;;;;;-141.97;44.45;47455.66;5034084;28;20227;-85
2022/09/26 07:28:00;;;;;;;12.77;6.83;;;;;;;-141.97;43.91;47511.38;5045517;28;20235;-85
2022/09/26 07:30:27;;;;;;;9.50;6.60;;;;;;;-141.97;42.98;47499.84;5059196;28;20174;-83
2022/09/26 07:32:59;;;;;;;10.87;6.70;;;;;;;-141.97;42.24;47488.31;5055961;28;20174;-85
2022/09/26 07:35:26;;;;;;;9.80;6.77;;;;;;;-141.97;41.42;47461.41;5017655;28;20657;-87
2022/09/26 07:37:54;;;;;;;9.67;6.63;;;;;;;-141.97;40.92;47492.16;5036224;28;20162;-86
2022/09/26 07:40:21;;;;;;;7.83;6.27;;;;;;;-141.97;40.73;47499.84;5037536;28;20220;-86
2022/09/26 07:42:47;;;;;;;10.13;6.77;;;;;;;-141.97;40.48;47467.19;5017767;28;20202;-86
2022/09/26 07:45:13;;;;;;;14.33;6.70;;;;;;;-141.97;40.30;47407.59;5034780;28;20197;-86
2022/09/26 07:50:22;;;;;;;10.37;6.87;;;;;;;-141.97;39.93;47476.78;5034476;28;20232;-86
2022/09/26 07:52:49;;;;;;;9.87;7.17;;;;;;;-141.97;39.36;47461.41;5034456;28;20154;-87
2022/09/26 07:55:17;;;;;;;10.77;6.80;;;;;;;-141.97;39.10;47438.34;5036184;28;20170;-85
2022/09/26 07:57:42;;;;;;;9.43;6.83;;;;;;;-141.97;38.90;47476.78;5034325;28;20185;-85
2022/09/26 08:00:12;;;;;;;9.50;6.80;;;;;;;-141.97;38.39;47442.19;5034098;28;20162;-86
2022/09/26 08:02:41;;;;;;;8.77;6.20;;;;;;;-141.97;40.37;47467.19;5034779;28;20188;-85
2022/09/26 08:05:09;;;;;;;8.90;6.83;;;;;;;-141.97;40.67;47478.72;5034347;28;20690;-87
2022/09/26 08:07:35;;;;;;;9.03;6.80;;;;;;;-141.97;40.24;47522.91;5034538;28;20428;-86
2022/09/26 08:10:02;;;;;;;11.23;6.90;;;;;;;-141.97;39.94;47469.09;5035817;28;20546;-84
2022/09/26 08:12:34;;;;;;;11.50;6.57;;;;;;;-141.97;38.60;47457.56;5037263;28;20169;-85
2022/09/26 08:15:00;;;;;;;8.73;6.60;;;;;;;-141.97;37.81;47478.72;5037806;28;20165;-86
2022/09/26 08:17:31;;;;;;;9.40;6.87;;;;;;;-141.97;37.52;47442.19;5035994;28;20233;-84
2022/09/26 08:19:57;;;;;;;10.57;6.93;;;;;;;-141.97;37.34;47453.72;5036452;28;20269;-85
2022/09/26 08:22:22;;;;;;;11.03;6.90;;;;;;;-141.97;37.07;47488.31;5036246;28;20626;-86
2022/09/26 08:24:49;;;;;;;30.90;9.10;;;;;;;-141.97;36.55;47394.16;5036607;28;20243;-85
2022/09/26 08:27:15;;;;;;;11.83;7.10;;;;;;;-141.97;35.87;47361.47;5036959;28;20169;-86
2022/09/26 08:29:41;;;;;;;9.07;6.57;;;;;;;-141.97;36.03;47386.47;5018780;28;20169;-87
2022/09/26 08:32:06;;;;;;;11.00;7.13;;;;;;;-141.97;35.41;47419.13;5017485;28;20554;-86
2022/09/26 08:34:34;;;;;;;20.43;7.30;;;;;;;-141.97;35.23;47451.81;5035137;28;20618;-85
2022/09/26 08:36:59;;;;;;;10.37;7.60;;;;;;;-141.97;34.91;47428.75;5034575;28;20645;-86
2022/09/26 08:39:25;;;;;;;9.57;7.10;;;;;;;-141.97;35.25;47413.38;5034403;28;20245;-85
2022/09/26 08:41:53;;;;;;;12.50;7.77;;;;;;;-141.97;35.28;47417.22;5034834;28;20166;-85
2022/09/26 08:44:29;;;;;;;14.93;8.10;;;;;;;-141.97;35.08;47415.28;5035497;28;20194;-85
2022/09/26 08:47:04;;;;;;;11.53;7.53;;;;;;;-141.97;35.12;47422.97;5035085;28;20193;-86
2022/09/26 08:50:08;;;;;;;11.67;7.23;;;;;;;-141.97;34.62;47396.06;5034451;28;20236;-85
2022/09/26 08:52:41;;;;;;;10.50;6.80;;;;;;;-141.97;34.70;47430.66;5034616;28;20158;-85
2022/09/26 08:55:19;;;;;;;10.27;6.97;;;;;;;-141.97;34.54;47424.91;5033893;28;20165;-86
2022/09/26 08:58:04;;;;;;;13.73;7.67;;;;;;;-141.97;33.96;47405.69;5033248;28;20671;-86
2022/09/26 09:00:32;;;;;;;8.73;6.27;;;;;;;-141.97;33.51;47426.81;5032573;28;20634;-86
2022/09/26 09:02:57;;;;;;;13.27;7.10;;;;;;;-141.97;33.32;47434.50;5032954;28;20622;-86
2022/09/26 09:05:31;;;;;;;10.90;7.10;;;;;;;-141.97;33.43;47422.97;5033186;28;20172;-86
2022/09/26 09:07:59;;;;;;;15.00;6.83;;;;;;;-141.97;33.89;47419.13;5033226;28;20165;-86
2022/09/26 09:10:43;;;;;;;18.27;7.57;;;;;;;-141.97;34.37;47407.59;5034903;28;20629;-88
2022/09/26 09:13:41;;;;;;;15.43;7.20;;;;;;;-141.97;34.45;47373.00;5035412;28;20162;-86
2022/09/26 09:16:22;;;;;;;11.03;7.13;;;;;;;-141.97;34.21;47426.81;5032668;28;20225;-87
2022/09/26 09:18:58;;;;;;;13.47;7.50;;;;;;;-141.97;34.30;47444.13;5032667;28;20252;-86
2022/09/26 09:21:47;;;;;;;15.17;7.40;;;;;;;-141.97;34.00;47392.22;5033160;28;20158;-86
2022/09/26 09:24:15;;;;;;;15.73;7.43;;;;;;;-141.97;33.61;47419.13;5032610;28;20308;-86
2022/09/26 09:27:20;;;;;;;14.23;7.40;;;;;;;-141.97;33.66;47415.28;5032552;28;20658;-86
2022/09/26 09:30:10;;;;;;;9.00;6.10;;;;;;;-141.97;33.40;47394.16;5032603;28;20162;-86
2022/09/26 09:32:48;;;;;;;10.20;6.87;;;;;;;-141.97;33.60;47417.22;5032440;28;20196;-85
2022/09/26 09:35:17;;;;;;;11.27;6.50;;;;;;;-141.97;33.63;47386.47;5032238;28;20253;-85
2022/09/26 09:37:49;;;;;;;7.23;5.60;;;;;;;-141.97;32.74;47382.63;5032449;28;20677;-86
2022/09/26 09:40:27;;;;;;;9.43;5.77;;;;;;;-141.97;33.11;47415.28;5032403;28;20165;-84
2022/09/26 09:43:09;;;;;;;11.33;6.97;;;;;;;-141.97;33.06;47405.69;5032548;28;20192;-85
2022/09/26 09:45:50;;;;;;;9.60;7.03;;;;;;;-141.97;33.00;47430.66;5032866;28;20688;-86
2022/09/26 09:48:15;;;;;;;6.80;6.10;;;;;;;-141.97;32.74;47424.91;5034060;28;20193;-86
2022/09/26 09:50:52;;;;;;;8.00;5.90;;;;;;;-141.97;32.71;47384.53;5037726;28;20173;-86
2022/09/26 09:53:44;;;;;;;9.43;6.20;;;;;;;-141.97;32.79;47430.66;5051847;28;20145;-83
2022/09/26 09:56:29;;;;;;;10.73;7.00;;;;;;;-141.97;32.89;47388.38;5043404;28;20174;-87
2022/09/26 09:59:23;;;;;;;8.50;6.30;;;;;;;-141.97;32.37;47365.31;5034030;28;20184;-87
2022/09/26 10:02:08;;;;;;;9.90;6.53;;;;;;;-141.97;32.63;47415.28;5032640;28;20188;-86
2022/09/26 10:04:48;;;;;;;7.20;6.17;;;;;;;-141.97;32.06;47407.59;5031836;28;20185;-84
2022/09/26 10:07:15;;;;;;;9.97;6.70;;;;;;;-141.97;32.36;47432.59;5032776;28;20158;-86
2022/09/26 10:09:42;;;;;;;8.87;6.27;;;;;;;-141.97;31.97;47430.66;5033345;28;20165;-86
2022/09/26 10:12:13;;;;;;;13.70;6.40;;;;;;;-141.97;32.22;47407.59;5032171;28;20622;-86
2022/09/26 10:14:50;;;;;;;9.33;6.53;;;;;;;-141.97;32.92;47403.75;5014257;28;20170;-85
2022/09/26 10:17:19;;;;;;;8.33;6.03;;;;;;;-141.97;32.91;47569.06;5031897;28;20229;-85
2022/09/26 10:19:45;;;;;;;7.80;6.13;;;;;;;-141.97;32.44;47415.28;5032296;28;20164;-86
2022/09/26 10:22:23;;;;;;;8.13;5.80;;;;;;;-141.97;32.43;47444.13;5032074;28;20241;-85
2022/09/26 10:24:50;;;;;;;7.87;5.70;;;;;;;-141.97;33.14;47401.84;5035599;28;20196;-85
2022/09/26 10:27:22;;;;;;;10.43;5.87;;;;;;;-141.97;33.09;47426.81;5036577;28;20220;-87
2022/09/26 10:29:58;;;;;;;11.83;6.50;;;;;;;-141.97;32.56;47551.75;5018941;28;20192;-86
2022/09/26 10:32:26;;;;;;;8.37;6.53;;;;;;;-141.97;32.66;47403.75;5037687;28;20220;-86
2022/09/26 10:35:40;;;;;;;7.80;5.80;;;;;;;-141.97;31.90;47411.44;5037697;28;20162;-86
2022/09/26 10:38:18;;;;;;;6.63;5.60;;;;;;;-141.97;31.40;47376.84;4976311;28;20259;-86
2022/09/26 10:40:53;;;;;;;7.15;5.63;;;;;;;-141.97;31.34;47382.63;4976526;28;20248;-86
2022/09/26 10:43:37;;;;;;;9.48;5.88;;;;;;;-141.97;31.18;47430.66;4958863;28;20202;-86
2022/09/26 10:46:12;;;;;;;9.30;5.50;;;;;;;-141.97;31.00;47415.28;4975516;28;20174;-86
2022/09/26 10:48:50;;;;;;;7.47;5.20;;;;;;;-141.97;30.55;47411.44;4975281;28;20248;-87
2022/09/26 10:51:25;;;;;;;7.40;5.65;;;;;;;-141.97;30.72;47428.75;4976277;28;20187;-86
2022/09/26 10:54:03;;;;;;;7.38;5.40;;;;;;;-141.97;30.37;47369.16;4975649;28;20230;-86
2022/09/26 10:56:34;;;;;;;5.93;5.32;;;;;;;-141.97;30.70;47371.09;4974015;28;20175;-87
2022/09/26 10:59:09;;;;;;;8.65;5.88;;;;;;;-141.97;30.92;47378.78;4975210;28;20670;-87
2022/09/26 11:01:41;;;;;;;8.48;5.30;;;;;;;-141.97;31.15;47390.31;4975114;28;20204;-87
2022/09/26 11:07:25;;;;;;;10.05;6.00;;;;;;;-141.97;30.83;47376.84;4935871;29;20178;-86
2022/09/26 11:10:00;;;;;;;11.35;6.32;;;;;;;-141.97;31.77;47380.69;4935707;29;20152;-85
2022/09/26 11:12:34;;;;;;;7.43;5.90;;;;;;;-141.97;31.64;47392.22;4935715;29;20196;-86
2022/09/26 11:15:11;;;;;;;8.15;5.93;;;;;;;-141.97;31.95;47330.72;4984990;28;20189;-85
2022/09/26 11:17:51;;;;;;;8.00;5.43;;;;;;;-141.97;31.79;47386.47;4993048;28;20321;-86
2022/09/26 11:20:35;;;;;;;8.55;5.50;;;;;;;-141.97;31.46;47376.84;4993528;28;20196;-86
2022/09/26 11:23:23;;;;;;;6.95;5.65;;;;;;;-141.97;31.43;47373.00;4994346;28;20250;-86
2022/09/26 11:25:56;;;;;;;10.55;5.95;;;;;;;-141.97;32.07;47426.81;4993872;28;20185;-86
2022/09/26 11:28:54;;;;;;;10.00;5.72;;;;;;;-141.97;31.78;47438.34;4977993;28;20185;-85
2022/09/26 11:31:42;;;;;;;10.20;5.70;;;;;;;-141.97;31.99;47365.31;5000646;28;20192;-86
2022/09/26 11:34:21;;;;;;;6.47;5.43;;;;;;;-141.97;31.85;47396.06;4993011;28;20219;-86
2022/09/26 11:37:01;;;;;;;6.38;5.47;;;;;;;-141.97;31.50;47388.38;4976576;28;20275;-87
2022/09/26 11:39:36;;;;;;;6.05;5.38;;;;;;;-141.97;31.15;47369.16;4993347;28;20175;-87